地図

経路データ

SID SEASON NUMBER BASIN SUBBASIN NAME ISO_TIME NATURE LAT LON WMO_WIND WMO_PRES WMO_AGENCY TRACK_TYPE DIST2LAND LANDFALL IFLAG USA_AGENCY USA_ATCF_ID USA_LAT USA_LON USA_RECORD USA_STATUS USA_WIND USA_PRES USA_SSHS USA_R34_NE USA_R34_SE USA_R34_SW USA_R34_NW USA_R50_NE USA_R50_SE USA_R50_SW USA_R50_NW USA_R64_NE USA_R64_SE USA_R64_SW USA_R64_NW USA_POCI USA_ROCI USA_RMW USA_EYE TOKYO_LAT TOKYO_LON TOKYO_GRADE TOKYO_WIND TOKYO_PRES TOKYO_R50_DIR TOKYO_R50_LONG TOKYO_R50_SHORT TOKYO_R30_DIR TOKYO_R30_LONG TOKYO_R30_SHORT TOKYO_LAND CMA_LAT CMA_LON CMA_CAT CMA_WIND CMA_PRES HKO_LAT HKO_LON HKO_CAT HKO_WIND HKO_PRES NEWDELHI_LAT NEWDELHI_LON NEWDELHI_GRADE NEWDELHI_WIND NEWDELHI_PRES NEWDELHI_CI NEWDELHI_DP NEWDELHI_POCI REUNION_LAT REUNION_LON REUNION_TYPE REUNION_WIND REUNION_PRES REUNION_TNUM REUNION_CI REUNION_RMW REUNION_R34_NE REUNION_R34_SE REUNION_R34_SW REUNION_R34_NW REUNION_R50_NE REUNION_R50_SE REUNION_R50_SW REUNION_R50_NW REUNION_R64_NE REUNION_R64_SE REUNION_R64_SW REUNION_R64_NW BOM_LAT BOM_LON BOM_TYPE BOM_WIND BOM_PRES BOM_TNUM BOM_CI BOM_RMW BOM_R34_NE BOM_R34_SE BOM_R34_SW BOM_R34_NW BOM_R50_NE BOM_R50_SE BOM_R50_SW BOM_R50_NW BOM_R64_NE BOM_R64_SE BOM_R64_SW BOM_R64_NW BOM_ROCI BOM_POCI BOM_EYE BOM_POS_METHOD BOM_PRES_METHOD NADI_LAT NADI_LON NADI_CAT NADI_WIND NADI_PRES WELLINGTON_LAT WELLINGTON_LON WELLINGTON_WIND WELLINGTON_PRES DS824_LAT DS824_LON DS824_STAGE DS824_WIND DS824_PRES TD9636_LAT TD9636_LON TD9636_STAGE TD9636_WIND TD9636_PRES TD9635_LAT TD9635_LON TD9635_WIND TD9635_PRES TD9635_ROCI NEUMANN_LAT NEUMANN_LON NEUMANN_CLASS NEUMANN_WIND NEUMANN_PRES MLC_LAT MLC_LON MLC_CLASS MLC_WIND MLC_PRES USA_GUST BOM_GUST BOM_GUST_PER REUNION_GUST REUNION_GUST_PER USA_SEAHGT USA_SEARAD_NE USA_SEARAD_SE USA_SEARAD_SW USA_SEARAD_NW STORM_SPEED STORM_DIR
1994287N08176 1994 101 WP MM VERNE 1994-10-13 12:00:00 NR 7.50000 175.500 main 2415 2401 O_____________ jtwc_wp WP331994 7.50000 175.500 15 -1 9 297
1994287N08176 1994 101 WP MM VERNE 1994-10-13 15:00:00 NR 7.70009 175.098 main 2402 2388 P_____________ WP331994 7.70009 175.098 15 -1 9 297
1994287N08176 1994 101 WP MM VERNE 1994-10-13 18:00:00 NR 7.90000 174.700 main 2390 2377 O_____________ jtwc_wp WP331994 7.90000 174.700 15 -1 9 297
1994287N08176 1994 101 WP MM VERNE 1994-10-13 21:00:00 NR 8.09994 174.307 main 2379 2367 P_____________ WP331994 8.09994 174.307 15 -1 9 297
1994287N08176 1994 101 WP MM VERNE 1994-10-14 00:00:00 NR 8.30000 173.900 main 2369 2357 O_____________ jtwc_wp WP331994 8.30000 173.900 15 -1 9 296
1994287N08176 1994 101 WP MM VERNE 1994-10-14 03:00:00 NR 8.50745 173.465 main 2360 2342 P_____________ WP331994 8.50745 173.465 15 -1 10 294
1994287N08176 1994 101 WP MM VERNE 1994-10-14 06:00:00 NR 8.70000 173.000 main 2345 2329 O_____________ jtwc_wp WP331994 8.70000 173.000 15 -1 10 291
1994287N08176 1994 101 WP MM VERNE 1994-10-14 09:00:00 NR 8.86493 172.515 main 2332 2311 P_____________ WP331994 8.86493 172.515 15 -1 10 287
1994287N08176 1994 101 WP MM VERNE 1994-10-14 12:00:00 NR 9.00000 172.000 main 2311 2291 O_____________ jtwc_wp WP331994 9.00000 172.000 15 -1 11 283
1994287N08176 1994 101 WP MM VERNE 1994-10-14 15:00:00 NR 9.10742 171.465 main 2291 2267 P_____________ WP331994 9.10742 171.465 17 -1 11 280
1994287N08176 1994 101 WP MM VERNE 1994-10-14 18:00:00 NR 9.20000 170.900 main 2267 2245 O_____________ jtwc_wp WP331994 9.20000 170.900 20 -1 12 280
1994287N08176 1994 101 WP MM VERNE 1994-10-14 21:00:00 NR 9.29990 170.315 main 2245 2225 P_____________ WP331994 9.29990 170.315 20 -1 12 280
1994287N08176 1994 101 WP MM VERNE 1994-10-15 00:00:00 NR 9.40000 169.700 main 2225 2206 O_____________ jtwc_wp WP331994 9.40000 169.700 20 -1 13 279
1994287N08176 1994 101 WP MM VERNE 1994-10-15 03:00:00 NR 9.49992 169.057 main 2206 2185 P_____________ WP331994 9.49992 169.057 20 -1 13 279
1994287N08176 1994 101 WP MM VERNE 1994-10-15 06:00:00 NR 9.60000 168.400 main 2185 2169 O_____________ jtwc_wp WP331994 9.60000 168.400 20 -1 13 279
1994287N08176 1994 101 WP MM VERNE 1994-10-15 09:00:00 NR 9.69983 167.757 main 2171 2162 P_____________ WP331994 9.69983 167.757 22 -1 16 284
1994287N08176 1994 101 WP MM VERNE 1994-10-15 12:00:00 TS 9.98333 166.800 1006 tokyo main 2166 2140 OO_O__________ jtwc_wp WP331994 9.80000 167.100 25 -1 10.7000 166.000 2 1006 0 0 0 10.0000 166.400 TD 25 1005 18 285
1994287N08176 1994 101 WP MM VERNE 1994-10-15 15:00:00 TS 10.1575 166.020 main 2143 2109 PP_P__________ WP331994 9.89230 166.422 25 -1 10.7525 165.550 2 1006 0 0 10.0929 165.685 TD 25 1005 15 282
1994287N08176 1994 101 WP MM VERNE 1994-10-15 18:00:00 TS 10.3000 165.280 1006 tokyo main 2109 2068 OO_O__________ jtwc_wp WP331994 10.0000 165.700 25 -1 10.8000 165.000 2 1006 0 0 0 10.2000 165.000 TD 25 1005 15 281
1994287N08176 1994 101 WP MM VERNE 1994-10-15 21:00:00 TS 10.4374 164.522 main 2061 2037 PP_P__________ WP331994 10.1349 164.922 25 -1 10.8426 164.287 2 1006 0 0 10.3347 164.357 TD 25 1005 14 282
1994287N08176 1994 101 WP MM VERNE 1994-10-16 00:00:00 TS 10.6077 163.862 1006 tokyo main 2037 2007 OOOO__________ jtwc_wp WP331994 10.3000 164.100 25 -1 10.9000 163.500 2 1006 0 0 0 11.1000 165.000 1 23 1006 10.5000 163.700 TD 25 1005 14 284
1994287N08176 1994 101 WP MM VERNE 1994-10-16 03:00:00 TS 10.7700 163.136 main 2002 1964 PPPP__________ WP331994 10.4848 163.265 25 -1 10.9848 162.750 2 1006 0 0 11.0658 163.993 1 23 1006 10.6924 162.965 TD 25 1005 15 282
1994287N08176 1994 101 WP MM VERNE 1994-10-16 06:00:00 TS 10.9200 162.360 1006 tokyo main 1964 1923 OOOO__________ jtwc_wp WP331994 10.7000 162.400 25 -1 11.1000 162.000 2 1006 0 0 0 11.0000 163.000 1 23 1006 10.9000 162.200 TD 25 1005 16 280
1994287N08176 1994 101 WP MM VERNE 1994-10-16 09:00:00 TS 11.0471 161.567 main 1923 1894 PPPP__________ WP331994 10.9422 161.515 25 -1 11.2497 161.265 2 1005 0 0 10.9044 162.022 1 26 1005 11.0922 161.465 TD 25 1005 17 280
1994287N08176 1994 101 WP MM VERNE 1994-10-16 12:00:00 TS 11.2000 160.700 1004 tokyo main 1888 1856 OOOO__________ jtwc_wp WP331994 11.2000 160.600 25 -1 11.4000 160.500 2 1004 0 0 0 10.9000 161.000 1 29 1004 11.3000 160.700 TD 25 1005 18 281
1994287N08176 1994 101 WP MM VERNE 1994-10-16 15:00:00 TS 11.3899 159.763 main 1856 1829 PPPP__________ WP331994 11.4498 159.657 25 -1 11.4923 159.672 2 1004 0 0 11.0751 159.850 1 29 1004 11.5423 159.872 TD 25 1005 19 283
1994287N08176 1994 101 WP MM VERNE 1994-10-16 18:00:00 TS 11.6250 158.800 1004 tokyo main 1824 1804 OOOO__________ jtwc_wp WP331994 11.7000 158.700 25 -1 11.6000 158.800 2 1004 0 0 0 11.4000 158.700 1 29 1004 11.8000 159.000 TD 25 1005 19 285
1994287N08176 1994 101 WP MM VERNE 1994-10-16 21:00:00 TS 11.8839 157.873 main 1809 1794 PPPP__________ WP331994 11.9573 157.742 25 -1 11.7396 157.922 2 1004 0 0 11.7964 157.722 1 29 1004 12.0423 158.107 TD 25 1005 19 287
1994287N08176 1994 101 WP MM VERNE 1994-10-17 00:00:00 TS 12.2000 156.925 1004 tokyo main 1796 1792 OOOO__________ jtwc_wp WP331994 12.2000 156.800 25 -1 12.0000 157.000 2 1004 0 0 0 12.3000 156.700 1 29 1004 12.3000 157.200 TD 25 1005 21 290
1994287N08176 1994 101 WP MM VERNE 1994-10-17 03:00:00 TS 12.6059 155.865 main 1801 1797 PPPP__________ WP331994 12.4072 155.885 27 -1 12.4777 155.978 2 1004 0 0 12.9541 155.297 1 29 1003 12.5847 156.300 TD 27 1002 22 292
1994287N08176 1994 101 WP MM VERNE 1994-10-17 06:00:00 TS 13.0000 154.875 1004 tokyo main 1813 1811 OOOO__________ jtwc_wp WP331994 12.6000 155.000 30 -1 13.0000 155.000 2 1004 0 0 0 13.5000 154.100 1 29 1002 12.9000 155.400 TD 30 1000 18 292
1994287N08176 1994 101 WP MM VERNE 1994-10-17 09:00:00 TS 13.2869 154.135 main 1827 1825 PPPP__________ WP331994 12.7997 154.142 30 -1 13.4019 154.212 2 1004 0 0 13.6810 153.701 1 29 1002 13.2648 154.485 TD 30 1000 15 290
1994287N08176 1994 101 WP MM VERNE 1994-10-17 12:00:00 TS 13.5000 153.475 1004 tokyo main 1837 1834 OOOO__________ jtwc_wp WP331994 13.0000 153.300 30 -1 13.7000 153.500 2 1004 0 0 0 13.7000 153.500 1 29 1002 13.6000 153.600 TD 30 1000 14 286
1994287N08176 1994 101 WP MM VERNE 1994-10-17 15:00:00 TS 13.6705 152.720 main 1848 1843 PPPP__________ WP331994 13.2073 152.442 32 -1 13.8873 152.750 2 1003 0 0 13.7501 152.910 1 29 1002 13.8372 152.777 TD 32 999 15 281
1994287N08176 1994 101 WP MM VERNE 1994-10-17 18:00:00 TS 13.8000 151.950 1002 tokyo main 1852 1840 OOOO__________ jtwc_wp WP331994 13.4000 151.600 35 0 14.0000 152.000 2 1002 0 0 0 13.8000 152.200 1 29 1002 14.0000 152.000 TS 35 998 15 280
1994287N08176 1994 101 WP MM VERNE 1994-10-17 21:00:00 TS 13.9178 151.204 main 1840 1835 PPPP__________ WP331994 13.5647 150.785 35 0 14.1071 151.265 2 1001 0 0 13.8847 151.522 1 29 1000 14.1147 151.242 TS 35 998 15 279
1994287N08176 1994 101 WP MM VERNE 1994-10-18 00:00:00 TS 14.0250 150.450 35 1000 tokyo main 1835 1831 OOOO__________ jtwc_wp WP331994 13.7000 150.000 35 0 14.2000 150.500 3 35 1000 0 8 100 60 0 14.0000 150.800 1 29 998 14.2000 150.500 TS 35 998 15 279
1994287N08176 1994 101 WP MM VERNE 1994-10-18 03:00:00 TS 14.1449 149.659 main 1832 1832 PPPP__________ WP331994 13.8073 149.235 37 0 14.3076 149.635 3 37 998 0 8 110 70 14.1498 150.023 1 33 996 14.3148 149.743 TS 35 998 15 278
1994287N08176 1994 101 WP MM VERNE 1994-10-18 06:00:00 TS 14.2500 148.875 40 996 tokyo main 1844 1833 OOOO__________ jtwc_wp WP331994 13.9000 148.500 40 0 14.4000 148.800 3 40 996 0 8 120 80 0 14.3000 149.200 2 38 995 14.4000 149.000 TS 35 998 15 277
1994287N08176 1994 101 WP MM VERNE 1994-10-18 09:00:00 TS 14.3310 148.139 main 1838 1838 PPPP__________ WP331994 13.9998 147.785 40 0 14.4719 148.135 3 42 994 0 8 120 100 14.4374 148.343 2 38 995 14.4147 148.292 TS 37 996 14 275
1994287N08176 1994 101 WP MM VERNE 1994-10-18 12:00:00 TS 14.3750 147.425 45 992 tokyo main 1848 1848 OOOO__________ jtwc_wp WP331994 14.1000 147.100 40 0 14.5000 147.500 3 45 992 0 9 120 120 0 14.5000 147.500 2 38 995 14.4000 147.600 TS 40 994 14 272
1994287N08176 1994 101 WP MM VERNE 1994-10-18 15:00:00 TS 14.3698 146.703 main 1848 1848 PPPP__________ WP331994 14.1998 146.442 42 0 14.4650 146.750 3 47 991 0 9 120 120 14.4147 146.720 2 38 992 14.3998 146.900 TS 42 992 14 269
1994287N08176 1994 101 WP MM VERNE 1994-10-18 18:00:00 TS 14.3500 146.000 50 990 tokyo main 1849 1838 OOOO__________ jtwc_wp WP331994 14.3000 145.800 45 0 14.4000 146.000 4 50 990 0 9 120 120 0 14.3000 146.000 2 38 990 14.4000 146.200 TS 45 990 13 269
1994287N08176 1994 101 WP MM VERNE 1994-10-18 21:00:00 TS 14.3454 145.321 main 1842 1842 PPPP__________ WP331994 14.3998 145.157 47 0 14.3274 145.312 4 50 990 0 9 120 120 14.2699 145.313 2 43 987 14.3848 145.500 TS 47 987 13 271
1994287N08176 1994 101 WP MM VERNE 1994-10-19 00:00:00 TS 14.3750 144.675 50 990 tokyo main 1860 1860 OOOO__________ jtwc_wp WP331994 14.5000 144.500 50 0 14.3000 144.700 4 50 990 0 9 120 120 0 14.3000 144.700 3 48 985 14.4000 144.800 STS 50 985 12 275
1994287N08176 1994 101 WP MM VERNE 1994-10-19 03:00:00 TS 14.4484 144.088 main 1868 1868 PPPP__________ WP331994 14.5999 143.807 52 0 14.3543 144.230 4 52 987 0 9 130 130 14.3620 144.215 3 48 985 14.4773 144.100 STS 50 985 12 280
1994287N08176 1994 101 WP MM VERNE 1994-10-19 06:00:00 TS 14.5750 143.475 55 985 tokyo main 1901 1889 OOOO__________ jtwc_wp WP331994 14.7000 143.100 55 0 14.5000 143.700 4 55 985 9 30 30 9 140 140 0 14.5000 143.700 3 48 985 14.6000 143.400 STS 50 985 13 284
1994287N08176 1994 101 WP MM VERNE 1994-10-19 09:00:00 TS 14.7605 142.755 main 1891 1809 PPPP__________ WP331994 14.7997 142.407 57 0 14.7503 142.888 4 55 982 9 35 35 9 140 140 14.7423 143.018 3 48 982 14.7497 142.708 STS 50 985 15 284
1994287N08176 1994 101 WP MM VERNE 1994-10-19 12:00:00 TS 14.9500 141.975 55 980 tokyo main 1811 1727 OOOO__________ jtwc_wp WP331994 14.9000 141.700 60 0 15.0000 142.000 4 55 980 9 40 40 9 140 140 0 15.0000 142.200 3 48 980 14.9000 142.000 STS 50 985 16 282
1994287N08176 1994 101 WP MM VERNE 1994-10-19 15:00:00 TS 15.0755 141.173 main 1727 1644 PPPP__________ WP331994 14.9923 140.957 60 0 15.1220 141.242 4 57 977 9 45 45 9 150 150 15.1805 141.235 3 53 980 15.0073 141.257 STS 52 982 16 278
1994287N08176 1994 101 WP MM VERNE 1994-10-19 18:00:00 TS 15.1750 140.375 60 975 tokyo main 1644 1572 OOOO__________ jtwc_wp WP331994 15.1000 140.200 60 0 15.2000 140.500 4 60 975 9 50 50 9 160 160 0 15.3000 140.300 3 58 980 15.1000 140.500 STS 55 980 15 277
1994287N08176 1994 101 WP MM VERNE 1994-10-19 21:00:00 TS 15.2652 139.634 main 1562 1491 PPPP__________ WP331994 15.2423 139.442 62 0 15.2849 139.700 4 62 972 9 55 55 9 170 170 15.3416 139.635 3 58 977 15.1922 139.757 STS 57 977 14 278
1994287N08176 1994 101 WP MM VERNE 1994-10-20 00:00:00 TS 15.3750 138.900 65 970 tokyo main 1491 1420 OOOO__________ jtwc_wp WP331994 15.4000 138.700 65 1 15.4000 138.900 5 65 970 9 60 60 9 180 180 0 15.4000 139.000 3 58 975 15.3000 139.000 STS 60 975 15 280
1994287N08176 1994 101 WP MM VERNE 1994-10-20 03:00:00 TS 15.5293 138.116 main 1409 1342 PPPP__________ WP331994 15.5422 137.992 65 1 15.5772 138.135 5 65 970 9 60 60 9 190 190 15.5630 138.135 3 63 972 15.4349 138.200 STS 60 975 15 283
1994287N08176 1994 101 WP MM VERNE 1994-10-20 06:00:00 TS 15.7250 137.350 65 970 tokyo main 1342 1277 OOOO__________ jtwc_wp WP331994 15.7000 137.300 65 1 15.8000 137.400 5 65 970 9 60 60 9 200 200 0 15.8000 137.300 4 68 970 15.6000 137.400 STS 60 975 15 287
1994287N08176 1994 101 WP MM VERNE 1994-10-20 09:00:00 TS 15.9622 136.660 main 1280 1217 PPPP__________ WP331994 15.8923 136.592 67 1 16.0573 136.678 5 65 970 9 60 60 9 220 220 16.1066 136.742 4 68 970 15.7923 136.627 STS 60 975 14 290
1994287N08176 1994 101 WP MM VERNE 1994-10-20 12:00:00 TS 16.2000 136.000 65 970 tokyo main 1217 1156 OOOO__________ jtwc_wp WP331994 16.1000 135.900 70 1 16.3000 136.000 5 65 970 9 60 60 9 240 240 0 16.4000 136.200 4 68 970 16.0000 135.900 STS 60 975 14 288
1994287N08176 1994 101 WP MM VERNE 1994-10-20 15:00:00 TS 16.3882 135.287 main 1156 1101 PPPP__________ WP331994 16.2999 135.220 70 1 16.4648 135.370 5 67 967 9 70 70 9 255 240 16.5808 135.362 4 72 965 16.2074 135.198 STS 62 972 13 285
1994287N08176 1994 101 WP MM VERNE 1994-10-20 18:00:00 TS 16.5500 134.650 70 965 tokyo main 1106 1063 OOOO__________ jtwc_wp WP331994 16.5000 134.600 70 1 16.6000 134.800 5 70 965 9 80 80 8 270 240 0 16.7000 134.600 4 77 960 16.4000 134.600 T 65 970 11 286
1994287N08176 1994 101 WP MM VERNE 1994-10-20 21:00:00 TS 16.6996 134.187 main 1063 1031 PPPP__________ WP331994 16.6998 134.055 72 1 16.7499 134.270 5 72 962 9 90 90 8 285 240 16.7916 134.277 4 77 960 16.5572 134.147 T 65 970 9 290
1994287N08176 1994 101 WP MM VERNE 1994-10-21 00:00:00 TS 16.8500 133.800 75 960 tokyo main 1036 1005 OOOO__________ jtwc_wp WP331994 16.9000 133.600 75 1 16.9000 133.800 5 75 960 9 100 100 8 300 240 0 16.9000 134.000 4 77 960 16.7000 133.800 T 65 970 9 292
1994287N08176 1994 101 WP MM VERNE 1994-10-21 03:00:00 TS 17.0213 133.356 main 1005 981 PPPP__________ WP331994 17.1074 133.212 75 1 17.0424 133.377 5 75 960 9 100 100 8 312 255 17.0856 133.358 4 77 960 16.8499 133.477 T 65 970 9 293
1994287N08176 1994 101 WP MM VERNE 1994-10-21 06:00:00 TS 17.2000 132.950 75 960 tokyo main 981 959 OOOO__________ jtwc_wp WP331994 17.3000 132.900 75 1 17.2000 133.000 5 75 960 9 100 100 7 325 270 0 17.3000 132.700 4 77 960 17.0000 133.200 T 65 970 8 297
1994287N08176 1994 101 WP MM VERNE 1994-10-21 09:00:00 TS 17.3805 132.612 main 959 946 PPPP__________ WP331994 17.4574 132.627 75 1 17.4075 132.620 5 75 960 9 100 100 7 325 270 17.5073 132.260 4 77 960 17.1499 132.942 T 65 970 7 301
1994287N08176 1994 101 WP MM VERNE 1994-10-21 12:00:00 TS 17.5500 132.350 75 960 tokyo main 951 931 OOOO__________ jtwc_wp WP331994 17.6000 132.400 75 1 17.6000 132.300 5 75 960 9 100 100 7 325 270 0 17.7000 132.000 4 77 960 17.3000 132.700 T 65 970 5 306
1994287N08176 1994 101 WP MM VERNE 1994-10-21 15:00:00 TS 17.6949 132.158 main 936 922 PPPP__________ WP331994 17.7575 132.192 77 1 17.7149 132.070 5 75 960 9 100 100 7 337 285 17.8574 131.920 4 77 960 17.4500 132.450 T 65 970 4 310
1994287N08176 1994 101 WP MM VERNE 1994-10-21 18:00:00 TS 17.8250 132.000 75 960 tokyo main 922 909 OOOO__________ jtwc_wp WP331994 17.9000 132.000 80 1 17.8000 131.900 5 75 960 9 100 100 7 350 300 0 18.0000 131.900 4 77 960 17.6000 132.200 T 65 970 4 308
1994287N08176 1994 101 WP MM VERNE 1994-10-21 21:00:00 TS 17.9575 131.805 main 914 901 PPPP__________ WP331994 18.0075 131.792 80 1 17.9000 131.742 5 75 960 9 100 100 7 350 300 18.1726 131.743 4 77 960 17.7500 131.942 T 67 967 4 305
1994287N08176 1994 101 WP MM VERNE 1994-10-22 00:00:00 TS 18.0750 131.625 75 960 tokyo main 901 892 OOOO__________ jtwc_wp WP331994 18.1000 131.600 80 1 18.0000 131.600 5 75 960 9 100 100 7 350 300 0 18.3000 131.600 4 77 960 17.9000 131.700 T 70 965 4 305
1994287N08176 1994 101 WP MM VERNE 1994-10-22 03:00:00 TS 18.1662 131.496 main 898 889 PPPP__________ WP331994 18.2075 131.443 80 1 18.1000 131.443 5 77 957 9 105 105 7 362 300 18.3075 131.607 4 77 960 18.0500 131.492 T 70 965 3 306
1994287N08176 1994 101 WP MM VERNE 1994-10-22 06:00:00 TS 18.2500 131.375 80 955 tokyo main 895 877 OOOO__________ jtwc_wp WP331994 18.3000 131.300 80 1 18.2000 131.300 5 80 955 9 110 110 7 375 300 0 18.3000 131.600 4 77 960 18.2000 131.300 T 70 965 3 306
1994287N08176 1994 101 WP MM VERNE 1994-10-22 09:00:00 TS 18.3575 131.218 main 883 875 PPPP__________ WP331994 18.3575 131.150 82 1 18.3075 131.200 5 80 955 9 110 110 7 375 300 18.3925 131.430 4 77 960 18.3725 131.093 T 70 965 4 303
1994287N08176 1994 101 WP MM VERNE 1994-10-22 12:00:00 TS 18.4500 131.050 80 955 tokyo main 881 864 OOOO__________ jtwc_wp WP331994 18.4000 131.000 85 2 18.4000 131.100 5 80 955 9 110 110 7 375 300 0 18.5000 131.200 4 77 960 18.5000 130.900 T 70 965 3 294
1994287N08176 1994 101 WP MM VERNE 1994-10-22 15:00:00 TS 18.4969 130.884 main 864 847 PPPP__________ WP331994 18.4575 130.850 87 2 18.4500 130.957 5 80 955 9 110 110 7 375 300 18.5575 130.992 4 77 957 18.5225 130.735 T 70 965 3 284
1994287N08176 1994 101 WP MM VERNE 1994-10-22 18:00:00 TS 18.5250 130.725 80 955 tokyo main 847 845 OOOO__________ jtwc_wp WP331994 18.5000 130.700 90 2 18.5000 130.800 5 80 955 9 110 110 7 375 300 0 18.6000 130.800 4 77 955 18.5000 130.600 T 70 965 3 285
1994287N08176 1994 101 WP MM VERNE 1994-10-22 21:00:00 TS 18.5737 130.580 main 845 837 PPPP__________ WP331994 18.5150 130.535 90 2 18.6150 130.650 5 80 955 9 110 110 7 375 300 18.6575 130.643 4 82 952 18.5075 130.493 T 72 962 3 286
1994287N08176 1994 101 WP MM VERNE 1994-10-23 00:00:00 TS 18.6000 130.450 80 955 tokyo main 837 820 OOOO__________ jtwc_wp WP331994 18.5000 130.400 90 2 18.7000 130.500 5 80 955 9 110 110 7 375 300 0 18.7000 130.500 5 87 950 18.5000 130.400 T 75 960 2 273
1994287N08176 1994 101 WP MM VERNE 1994-10-23 03:00:00 TS 18.5869 130.326 main 820 805 PPPP__________ WP331994 18.4650 130.335 92 2 18.6800 130.335 5 80 955 9 110 110 7 375 300 18.7300 130.335 5 87 950 18.4725 130.300 T 77 957 2 251
1994287N08176 1994 101 WP MM VERNE 1994-10-23 06:00:00 TS 18.5250 130.225 80 955 tokyo main 805 798 OOOO__________ jtwc_wp WP331994 18.4000 130.300 95 2 18.6000 130.200 5 80 955 9 110 110 7 375 300 0 18.7000 130.200 5 87 950 18.4000 130.200 T 80 955 3 222
1994287N08176 1994 101 WP MM VERNE 1994-10-23 09:00:00 TS 18.4000 130.151 main 798 783 PPPP__________ WP331994 18.3000 130.250 100 3 18.5000 130.135 5 80 955 9 110 110 7 375 300 18.5500 130.127 5 87 950 18.2500 130.092 T 82 952 3 205
1994287N08176 1994 101 WP MM VERNE 1994-10-23 12:00:00 TS 18.2750 130.100 80 955 tokyo main 783 776 OOOO__________ jtwc_wp WP331994 18.2000 130.200 105 3 18.4000 130.100 5 80 955 9 110 110 7 375 300 0 18.4000 130.100 5 87 950 18.1000 130.000 ST 85 950 2 209
1994287N08176 1994 101 WP MM VERNE 1994-10-23 15:00:00 TS 18.2375 130.063 main 776 767 PPPP__________ WP331994 18.1575 130.150 110 3 18.3500 130.050 5 80 952 9 115 115 7 375 300 18.4000 130.108 5 87 950 18.0425 129.943 ST 85 950 1 224
1994287N08176 1994 101 WP MM VERNE 1994-10-23 18:00:00 TS 18.2000 130.025 80 950 tokyo main 767 761 OOOO__________ jtwc_wp WP331994 18.1000 130.100 115 4 18.3000 130.000 5 80 950 9 120 120 7 375 300 0 18.4000 130.100 5 87 950 18.0000 129.900 ST 85 950 2 212
1994287N08176 1994 101 WP MM VERNE 1994-10-23 21:00:00 TS 18.0956 129.966 main 761 745 PPPP__________ WP331994 17.9650 130.050 115 4 18.2300 129.950 5 80 950 9 120 120 7 375 300 18.2800 130.015 5 87 950 17.9075 129.850 ST 85 950 3 205
1994287N08176 1994 101 WP MM VERNE 1994-10-24 00:00:00 TS 17.9500 129.900 80 950 tokyo main 745 724 OOOO__________ jtwc_wp WP331994 17.8000 130.000 115 4 18.1000 129.900 5 80 950 9 120 120 7 375 300 0 18.1000 129.900 5 87 950 17.8000 129.800 ST 85 950 3 202
1994287N08176 1994 101 WP MM VERNE 1994-10-24 03:00:00 TS 17.7881 129.832 main 724 711 PPPP__________ WP331994 17.6575 129.950 115 4 17.8650 129.850 5 80 950 9 120 120 7 375 300 17.9150 129.785 5 87 950 17.7150 129.743 ST 85 950 4 198
1994287N08176 1994 101 WP MM VERNE 1994-10-24 06:00:00 TS 17.6000 129.775 80 950 tokyo main 711 689 OOOO__________ jtwc_wp WP331994 17.5000 129.900 115 4 17.6000 129.800 5 80 950 9 120 120 7 375 300 0 17.7000 129.700 5 87 950 17.6000 129.700 ST 85 950 4 192
1994287N08176 1994 101 WP MM VERNE 1994-10-24 09:00:00 TS 17.3969 129.748 main 689 677 PPPP__________ WP331994 17.3075 129.850 112 3 17.4000 129.750 5 80 950 9 120 120 7 375 300 17.4575 129.700 5 87 950 17.4225 129.693 ST 85 950 4 184
1994287N08176 1994 101 WP MM VERNE 1994-10-24 12:00:00 TS 17.1750 129.725 80 950 tokyo main 677 660 OOOO__________ jtwc_wp WP331994 17.1000 129.800 110 3 17.2000 129.700 5 80 950 9 120 120 7 375 300 0 17.2000 129.700 5 87 950 17.2000 129.700 ST 85 950 5 189
1994287N08176 1994 101 WP MM VERNE 1994-10-24 15:00:00 TS 16.9356 129.671 main 660 639 PPPP__________ WP331994 16.9000 129.750 107 3 16.9500 129.635 5 80 950 9 120 120 7 362 300 16.9350 129.600 5 87 950 16.9575 129.700 ST 85 950 5 191
1994287N08176 1994 101 WP MM VERNE 1994-10-24 18:00:00 TS 16.7000 129.625 80 950 tokyo main 639 629 OOOO__________ jtwc_wp WP331994 16.7000 129.700 105 3 16.7000 129.600 5 80 950 9 120 120 7 350 300 0 16.7000 129.500 5 87 950 16.7000 129.700 ST 85 950 5 188
1994287N08176 1994 101 WP MM VERNE 1994-10-24 21:00:00 TS 16.4869 129.619 main 629 619 PPPP__________ WP331994 16.4925 129.650 105 3 16.4850 129.635 5 80 950 9 120 120 7 350 300 16.5350 129.478 5 87 950 16.4350 129.715 ST 85 950 4 0
1994287N08176 1994 101 WP MM VERNE 1994-10-25 00:00:00 TS 16.3000 129.625 80 950 tokyo main 619 610 OOOO__________ jtwc_wp WP331994 16.3000 129.600 105 3 16.3000 129.700 5 80 950 9 120 120 7 350 300 0 16.4000 129.500 5 87 950 16.2000 129.700 ST 85 950 4 0
1994287N08176 1994 101 WP MM VERNE 1994-10-25 03:00:00 TS 16.1388 129.622 main 610 606 PPPP__________ WP331994 16.1350 129.550 105 3 16.1425 129.765 5 80 950 9 120 120 7 350 300 16.2500 129.558 5 87 950 16.0275 129.615 ST 85 950 3 0
1994287N08176 1994 101 WP MM VERNE 1994-10-25 06:00:00 TS 16.0000 129.600 80 950 tokyo main 606 602 OOOO__________ jtwc_wp WP331994 16.0000 129.500 105 3 16.0000 129.800 5 80 950 9 120 120 7 350 300 0 16.1000 129.600 5 87 950 15.9000 129.500 ST 85 950 3 193
1994287N08176 1994 101 WP MM VERNE 1994-10-25 09:00:00 TS 15.8637 129.549 main 592 588 PPPP__________ WP331994 15.8925 129.450 102 3 15.8350 129.772 5 80 950 9 120 120 7 350 300 15.9350 129.580 5 87 950 15.7925 129.393 ST 85 950 3 205
1994287N08176 1994 101 WP MM VERNE 1994-10-25 12:00:00 TS 15.7500 129.475 80 950 tokyo main 588 574 OOOO__________ jtwc_wp WP331994 15.8000 129.400 100 3 15.7000 129.700 5 80 950 9 120 120 7 350 300 0 15.8000 129.500 5 87 950 15.7000 129.300 ST 85 950 2 220
1994287N08176 1994 101 WP MM VERNE 1994-10-25 15:00:00 TS 15.6731 129.386 main 574 559 PPPP__________ WP331994 15.7000 129.350 100 3 15.6425 129.608 5 80 950 9 120 120 7 350 300 15.7500 129.343 5 87 950 15.6000 129.243 ST 85 950 2 228
1994287N08176 1994 101 WP MM VERNE 1994-10-25 18:00:00 TS 15.6000 129.300 80 950 tokyo main 559 552 OOOO__________ jtwc_wp WP331994 15.6000 129.300 100 3 15.6000 129.500 5 80 950 9 120 120 7 350 300 0 15.7000 129.200 5 87 950 15.5000 129.200 ST 85 950 2 216
1994287N08176 1994 101 WP MM VERNE 1994-10-25 21:00:00 TS 15.4912 129.248 main 544 536 PPPP__________ WP331994 15.5000 129.250 97 3 15.5075 129.408 5 77 952 9 115 115 7 350 325 15.5575 129.193 5 87 950 15.4000 129.143 ST 82 952 2 203
1994287N08176 1994 101 WP MM VERNE 1994-10-26 00:00:00 TS 15.3750 129.200 75 955 tokyo main 536 521 OOOO__________ jtwc_wp WP331994 15.4000 129.200 95 2 15.4000 129.300 5 75 955 9 110 110 9 350 350 0 15.4000 129.200 5 87 950 15.3000 129.100 T 80 955 3 208
1994287N08176 1994 101 WP MM VERNE 1994-10-26 03:00:00 TS 15.2600 129.116 main 521 514 PPPP__________ WP331994 15.2925 129.135 95 2 15.2850 129.135 5 72 957 9 110 110 9 350 350 15.2775 129.115 5 82 952 15.1850 129.078 T 77 957 2 216
1994287N08176 1994 101 WP MM VERNE 1994-10-26 06:00:00 TS 15.1750 129.050 70 960 tokyo main 514 498 OOOO__________ jtwc_wp WP331994 15.2000 129.100 95 2 15.2000 129.000 5 70 960 9 110 110 9 350 350 0 15.2000 129.000 4 77 955 15.1000 129.100 T 75 960 1 210
1994287N08176 1994 101 WP MM VERNE 1994-10-26 09:00:00 TS 15.1419 129.048 main 498 498 PPPP__________ WP331994 15.1275 129.128 92 2 15.1850 128.963 5 70 960 9 110 110 9 350 350 15.1850 128.915 4 77 957 15.0700 129.185 T 72 962 0 0
1994287N08176 1994 101 WP MM VERNE 1994-10-26 12:00:00 TS 15.1500 129.075 70 960 tokyo main 514 506 OOOO__________ jtwc_wp WP331994 15.1000 129.200 90 2 15.2000 129.000 5 70 960 9 110 110 9 350 350 0 15.2000 128.800 4 77 960 15.1000 129.300 T 70 965 0 0
1994287N08176 1994 101 WP MM VERNE 1994-10-26 15:00:00 TS 15.1687 129.072 main 514 514 PPPP__________ WP331994 15.1200 129.285 87 2 15.1850 129.078 5 67 962 9 105 105 9 350 350 15.1850 128.525 4 72 965 15.1850 129.400 T 67 967 1 32
1994287N08176 1994 101 WP MM VERNE 1994-10-26 18:00:00 TS 15.2250 129.125 65 965 tokyo main 514 514 OOOO__________ jtwc_wp WP331994 15.2000 129.400 85 2 15.2000 129.200 5 65 965 9 100 100 9 350 350 0 15.2000 128.400 4 68 970 15.3000 129.500 T 65 970 3 58
1994287N08176 1994 101 WP MM VERNE 1994-10-26 21:00:00 TS 15.3132 129.312 main 537 537 PPPP__________ WP331994 15.3275 129.550 82 1 15.2700 129.335 5 65 967 9 100 100 9 350 350 15.2629 128.762 4 68 970 15.3925 129.600 T 62 972 4 60
1994287N08176 1994 101 WP MM VERNE 1994-10-27 00:00:00 TS 15.4500 129.525 65 970 tokyo main 568 561 OOOO__________ jtwc_wp WP331994 15.5000 129.700 80 1 15.4000 129.500 5 65 970 9 100 100 9 350 350 0 15.4000 129.200 4 68 970 15.5000 129.700 STS 60 975 5 45
1994287N08176 1994 101 WP MM VERNE 1994-10-27 03:00:00 TS 15.6312 129.639 main 583 583 PPPP__________ WP331994 15.6850 129.808 77 1 15.5775 129.693 5 62 972 9 95 95 9 325 325 15.6273 129.265 4 68 970 15.6350 129.793 STS 60 975 5 28
1994287N08176 1994 101 WP MM VERNE 1994-10-27 06:00:00 TS 15.8500 129.750 60 975 tokyo main 621 614 OOOO__________ jtwc_wp WP331994 15.9000 129.900 75 1 15.8000 129.900 4 60 975 9 90 90 9 300 300 0 15.9000 129.300 4 68 970 15.8000 129.900 STS 60 975 5 31
1994287N08176 1994 101 WP MM VERNE 1994-10-27 09:00:00 TS 16.0856 129.928 main 640 640 PPPP__________ WP331994 16.1425 129.993 72 1 16.0425 130.107 4 57 977 9 90 90 9 300 300 16.1651 129.570 4 63 972 15.9925 130.042 STS 57 977 6 37
1994287N08176 1994 101 WP MM VERNE 1994-10-27 12:00:00 TS 16.3250 130.125 55 980 tokyo main 668 668 OOOO__________ jtwc_wp WP331994 16.4000 130.100 70 1 16.3000 130.300 4 55 980 9 90 90 9 300 300 0 16.4000 129.900 3 58 975 16.2000 130.200 STS 55 980 6 40
1994287N08176 1994 101 WP MM VERNE 1994-10-27 15:00:00 TS 16.5225 130.304 main 696 696 PPPP__________ WP331994 16.6425 130.243 67 1 16.5350 130.458 4 55 980 9 90 90 9 300 300 16.5275 130.165 3 58 975 16.3850 130.350 STS 52 982 5 38
1994287N08176 1994 101 WP MM VERNE 1994-10-27 18:00:00 TS 16.7500 130.475 55 980 tokyo main 730 725 OOOO__________ jtwc_wp WP331994 16.9000 130.400 65 1 16.8000 130.600 4 55 980 9 90 90 9 300 300 0 16.7000 130.400 3 58 975 16.6000 130.500 STS 50 985 6 31
1994287N08176 1994 101 WP MM VERNE 1994-10-27 21:00:00 TS 17.0706 130.649 main 754 754 PPPP__________ WP331994 17.2000 130.550 62 0 17.1350 130.765 4 55 980 9 90 90 9 300 300 17.0775 130.622 3 58 977 16.8700 130.658 STS 50 985 7 25
1994287N08176 1994 101 WP MM VERNE 1994-10-28 00:00:00 TS 17.4250 130.800 55 980 tokyo main 789 789 OOOO__________ jtwc_wp WP331994 17.5000 130.700 60 0 17.5000 130.900 4 55 980 9 90 90 9 300 300 0 17.5000 130.800 3 58 980 17.2000 130.800 STS 50 985 7 21
1994287N08176 1994 101 WP MM VERNE 1994-10-28 03:00:00 TS 17.7481 130.919 main 815 815 PPPP__________ WP331994 17.7500 130.850 57 0 17.8500 130.973 4 52 982 9 9 285 285 17.8000 130.930 3 53 982 17.5925 130.922 STS 50 985 7 16
1994287N08176 1994 101 WP MM VERNE 1994-10-28 06:00:00 TS 18.0750 131.000 50 985 tokyo main 847 847 OOOO__________ jtwc_wp WP331994 18.0000 131.000 55 0 18.2000 131.000 4 50 985 0 9 270 270 0 18.1000 131.000 3 48 985 18.0000 131.000 STS 50 985 7 10
1994287N08176 1994 101 WP MM VERNE 1994-10-28 09:00:00 TS 18.4362 131.041 main 866 866 PPPP__________ WP331994 18.2925 131.150 55 0 18.5725 130.993 4 50 985 0 9 270 270 18.5075 131.015 3 48 985 18.3725 131.008 STS 50 985 7 6
1994287N08176 1994 101 WP MM VERNE 1994-10-28 12:00:00 TS 18.7750 131.075 50 985 tokyo main 900 900 OOOO__________ jtwc_wp WP331994 18.6000 131.300 55 0 18.9000 131.000 4 50 985 0 9 270 270 0 18.9000 131.000 3 48 985 18.7000 131.000 STS 50 985 6 8
1994287N08176 1994 101 WP MM VERNE 1994-10-28 15:00:00 TS 19.0475 131.131 main 914 914 PPPP__________ WP331994 18.9000 131.450 52 0 19.1299 131.063 4 50 985 0 9 270 270 19.1875 130.985 3 48 987 18.9725 131.028 STS 50 985 5 16
1994287N08176 1994 101 WP MM VERNE 1994-10-28 18:00:00 TS 19.2750 131.225 50 985 tokyo main 941 941 OOOO__________ jtwc_wp WP331994 19.2000 131.600 50 0 19.3000 131.200 4 50 985 0 9 270 270 0 19.4000 131.000 3 48 990 19.2000 131.100 STS 50 985 5 28
1994287N08176 1994 101 WP MM VERNE 1994-10-28 21:00:00 TS 19.4675 131.365 main 964 964 PPPP__________ WP331994 19.5000 131.743 50 0 19.4426 131.443 4 50 985 0 9 270 270 19.5349 131.055 3 48 990 19.3925 131.220 STS 50 985 5 37
1994287N08176 1994 101 WP MM VERNE 1994-10-29 00:00:00 TS 19.6750 131.550 50 985 tokyo main 988 977 OOOO__________ jtwc_wp WP331994 19.8000 131.900 50 0 19.6000 131.700 4 50 985 0 9 270 270 0 19.7000 131.200 3 48 990 19.6000 131.400 STS 50 985 6 38
1994287N08176 1994 101 WP MM VERNE 1994-10-29 03:00:00 TS 19.9469 131.760 main 1011 1011 PPPP__________ WP331994 20.0925 132.085 50 0 19.8124 131.858 4 50 985 0 9 270 270 20.0201 131.477 3 48 990 19.8625 131.620 STS 50 985 7 35
1994287N08176 1994 101 WP MM VERNE 1994-10-29 06:00:00 TS 20.2750 132.000 50 985 tokyo main 1039 1039 OOOO__________ jtwc_wp WP331994 20.4000 132.300 50 0 20.1000 132.000 4 50 985 0 9 270 270 0 20.4000 131.800 3 48 990 20.2000 131.900 STS 50 985 8 33
1994287N08176 1994 101 WP MM VERNE 1994-10-29 09:00:00 TS 20.6399 132.237 main 1066 1066 PPPP__________ WP331994 20.7424 132.520 50 0 20.4548 132.155 4 50 985 0 9 270 270 20.7349 132.043 3 48 990 20.6275 132.228 STS 50 985 9 32
1994287N08176 1994 101 WP MM VERNE 1994-10-29 12:00:00 TS 21.0500 132.525 50 985 tokyo main 1109 1083 OOOO__________ jtwc_wp WP331994 21.1000 132.800 50 0 20.9000 132.400 4 50 985 0 9 270 270 0 21.1000 132.300 3 48 990 21.1000 132.600 STS 50 985 10 35
1994287N08176 1994 101 WP MM VERNE 1994-10-29 15:00:00 TS 21.4905 132.884 main 1083 1046 PPPP__________ WP331994 21.4350 133.170 50 0 21.4424 132.790 4 50 985 0 9 270 270 21.5271 132.583 3 48 990 21.5575 132.993 STS 50 985 12 40
1994287N08176 1994 101 WP MM VERNE 1994-10-29 18:00:00 TS 21.9500 133.325 50 985 tokyo main 1037 1008 OOOO__________ jtwc_wp WP331994 21.8000 133.600 50 0 22.0000 133.300 4 50 985 0 9 270 270 0 22.0000 133.000 3 48 990 22.0000 133.400 STS 50 985 13 45
1994287N08176 1994 101 WP MM VERNE 1994-10-29 21:00:00 TS 22.4040 133.862 main 1011 982 PPPP__________ WP331994 22.2424 134.043 47 0 22.4654 133.915 4 50 985 0 9 270 270 22.5008 133.692 3 48 990 22.4074 133.800 STS 47 987 13 48
1994287N08176 1994 101 WP MM VERNE 1994-10-30 00:00:00 TS 22.8500 134.400 50 985 tokyo main 975 950 OOOO__________ jtwc_wp WP331994 22.7000 134.500 45 0 22.9000 134.500 4 50 985 0 9 270 270 0 23.0000 134.400 3 48 990 22.8000 134.200 TS 45 990 13 45
1994287N08176 1994 101 WP MM VERNE 1994-10-30 03:00:00 TS 23.2878 134.819 main 950 927 PPPP__________ WP331994 23.1073 134.943 45 0 23.3645 134.881 4 50 985 0 9 270 270 23.4795 134.853 3 48 990 23.1999 134.600 TS 45 990 11 41
1994287N08176 1994 101 WP MM VERNE 1994-10-30 06:00:00 TS 23.7000 135.200 50 985 tokyo main 927 908 OOOO__________ jtwc_wp WP331994 23.5000 135.400 45 0 23.8000 135.200 4 50 985 0 9 270 270 0 23.9000 135.200 3 48 990 23.6000 135.000 TS 45 990 11 42
1994287N08176 1994 101 WP MM VERNE 1994-10-30 09:00:00 TS 24.0792 135.607 main 908 896 PPPP__________ WP331994 23.9075 135.900 45 0 24.1799 135.593 4 50 985 0 9 270 270 24.2223 135.550 3 48 990 24.0073 135.385 TS 45 990 10 46
1994287N08176 1994 101 WP MM VERNE 1994-10-30 12:00:00 TS 24.4250 136.025 50 985 tokyo main 902 888 OOOO__________ jtwc_wp WP331994 24.3000 136.400 45 0 24.5000 136.000 4 50 985 0 9 270 270 0 24.5000 135.900 3 48 990 24.4000 135.800 TS 45 990 10 49
1994287N08176 1994 101 WP MM VERNE 1994-10-30 15:00:00 TS 24.7504 136.450 main 884 882 PPPP__________ WP331994 24.6722 136.850 45 0 24.7573 136.385 4 50 985 0 9 270 270 24.8073 136.278 3 43 992 24.7650 136.285 TS 45 990 10 52
1994287N08176 1994 101 WP MM VERNE 1994-10-30 18:00:00 TS 25.0500 136.900 50 985 tokyo main 885 885 OOOO__________ jtwc_wp WP331994 25.0000 137.300 45 0 25.0000 136.800 4 50 985 0 9 270 270 0 25.1000 136.700 2 38 995 25.1000 136.800 TS 45 990 10 55
1994287N08176 1994 101 WP MM VERNE 1994-10-30 21:00:00 TS 25.3359 137.368 main 898 889 PPPP__________ WP331994 25.2799 137.793 45 0 25.3071 137.255 4 47 987 0 9 255 255 25.3495 137.148 2 38 995 25.4071 137.278 TS 45 990 11 59
1994287N08176 1994 101 WP MM VERNE 1994-10-31 00:00:00 TS 25.6000 137.900 45 990 tokyo main 893 881 OOOO__________ jtwc_wp WP331994 25.5000 138.300 45 0 25.6000 137.800 3 45 990 0 9 240 240 0 25.6000 137.700 2 38 995 25.7000 137.800 TS 45 990 12 65
1994287N08176 1994 101 WP MM VERNE 1994-10-31 03:00:00 TS 25.8326 138.530 main 887 878 PPPP__________ WP331994 25.6647 138.793 45 0 25.7728 138.473 3 45 990 0 9 240 240 25.8854 138.428 2 38 995 26.0075 138.428 TS 45 990 13 68
1994287N08176 1994 101 WP MM VERNE 1994-10-31 06:00:00 TS 26.0750 139.200 45 990 tokyo main 878 872 OOOO__________ jtwc_wp WP331994 25.8000 139.300 45 0 26.0000 139.200 3 45 990 0 9 240 240 0 26.2000 139.200 2 38 995 26.3000 139.100 TS 45 990 13 66
1994287N08176 1994 101 WP MM VERNE 1994-10-31 09:00:00 TS 26.3622 139.834 45 990 tokyo main 870 869 POPP__________ WP331994 25.9270 139.813 45 0 26.4000 139.900 3 45 990 0 6 270 240 0 26.5646 139.872 2 38 995 26.5572 139.750 TS 45 990 12 64
1994287N08176 1994 101 WP MM VERNE 1994-10-31 12:00:00 TS 26.6133 140.453 45 990 tokyo main 882 878 OOOO__________ jtwc_wp WP331994 26.1000 140.400 45 0 26.7000 140.500 3 45 990 0 6 270 240 0 26.9000 140.500 2 38 995 26.8000 140.400 TS 45 990 13 68
1994287N08176 1994 101 WP MM VERNE 1994-10-31 15:00:00 TS 26.8333 141.136 45 990 tokyo main 895 888 POPP__________ WP331994 26.3702 141.127 45 0 26.9000 141.200 3 45 990 0 6 270 240 0 27.1223 141.123 2 38 995 27.0481 141.049 TS 45 990 13 70
1994287N08176 1994 101 WP MM VERNE 1994-10-31 18:00:00 TS 27.0538 141.823 45 992 tokyo main 884 877 OOOO__________ jtwc_wp WP331994 26.7000 141.900 45 0 27.1000 141.900 3 45 992 0 6 270 240 0 27.3000 141.700 2 38 995 27.3000 141.700 TS 45 990 13 67
1994287N08176 1994 101 WP MM VERNE 1994-10-31 21:00:00 TS 27.3473 142.479 45 994 tokyo main 883 862 POP___________ WP331994 27.0577 142.660 45 0 27.5000 142.600 3 45 994 0 7 270 240 0 27.4842 142.178 2 33 996 TS 12 63
1994287N08176 1994 101 WP MM VERNE 1994-11-01 00:00:00 TS 27.6000 143.033 40 996 tokyo main 865 858 OOO___________ jtwc_wp WP331994 27.4000 143.300 45 0 27.7000 143.100 3 40 996 0 7 270 240 0 27.7000 142.700 1 29 998 11 62
1994287N08176 1994 101 WP MM VERNE 1994-11-01 03:00:00 TS 27.8526 143.561 40 998 tokyo main 855 851 POP___________ WP331994 27.6644 143.703 45 0 27.9000 143.500 3 40 998 0 7 270 240 0 27.9935 143.479 1 29 999 11 60
1994287N08176 1994 101 WP MM VERNE 1994-11-01 06:00:00 TS 28.1667 144.133 40 1000 tokyo main 846 840 OOO___________ jtwc_wp WP331994 27.9000 144.000 45 0 28.3000 144.200 3 40 1000 0 7 270 240 0 28.3000 144.200 1 29 1000 10 56
1994287N08176 1994 101 WP MM VERNE 1994-11-01 09:00:00 TS 28.4300 144.515 main 845 831 PPP___________ WP331994 28.1272 144.328 45 0 28.6062 144.649 3 1002 0 7 28.5567 144.568 1 29 1000 8 50
1994287N08176 1994 101 WP MM VERNE 1994-11-01 12:00:00 MX 28.6909 144.836 1004 tokyo main 831 823 OOO___________ jtwc_wp WP331994 28.4000 144.700 45 0 28.9000 145.000 6 1004 0 0 0 28.8000 144.800 1 29 1000 9 48
1994287N08176 1994 101 WP MM VERNE 1994-11-01 15:00:00 MX 29.0011 145.243 main 825 815 PPP___________ WP331994 28.7317 145.119 45 0 29.2470 145.449 6 1004 0 0 29.0480 145.077 1 26 1002 11 49
1994287N08176 1994 101 WP MM VERNE 1994-11-01 18:00:00 MX 29.4333 145.800 1004 tokyo main 821 810 OOO___________ jtwc_wp WP331994 29.2000 145.700 45 0 29.7000 146.000 6 1004 0 0 0 29.3000 145.400 1 23 1004 16 48
1994287N08176 1994 101 WP MM VERNE 1994-11-01 21:00:00 ET 30.0498 146.601 main 819 810 PP____________ WP331994 29.8402 146.525 45 0 30.2595 146.677 6 1004 0 0 1 20 47
1994287N08176 1994 101 WP MM VERNE 1994-11-02 00:00:00 ET 30.8000 147.500 1004 tokyo main 820 819 OO____________ jtwc_wp WP331994 30.6000 147.500 45 0 31.0000 147.500 6 1004 0 0 0 23 44
1994287N08176 1994 101 WP MM VERNE 1994-11-02 03:00:00 ET 31.7000 148.480 main 830 824 PP____________ WP331994 31.3774 148.501 47 0 32.0225 148.460 6 1004 0 0 25 43
1994287N08176 1994 101 WP MM VERNE 1994-11-02 06:00:00 ET 32.6000 149.500 1004 tokyo main 861 861 OO____________ jtwc_wp WP331994 32.2000 149.500 50 0 33.0000 149.500 6 1004 0 0 0 23 46
1994287N08176 1994 101 WP MM VERNE 1994-11-02 09:00:00 ET 33.3111 150.442 main 908 908 PP____________ WP331994 33.0482 150.380 52 0 33.5741 150.504 6 1004 0 0 21 50
1994287N08176 1994 101 WP MM VERNE 1994-11-02 12:00:00 ET 33.9500 151.400 1004 tokyo main 974 976 OO____________ jtwc_wp WP331994 33.9000 151.300 55 0 34.0000 151.500 6 1004 0 0 0 21 53
1994287N08176 1994 101 WP MM VERNE 1994-11-02 15:00:00 ET 34.6077 152.483 main 1058 1058 PP____________ WP331994 34.7387 152.464 57 0 34.4767 152.502 6 1004 0 0 22 54
1994287N08176 1994 101 WP MM VERNE 1994-11-02 18:00:00 ET 35.2500 153.550 1004 tokyo main 1114 1111 OO____________ jtwc_wp WP331994 35.5000 153.600 60 0 35.0000 153.500 6 1004 0 0 0 21 52
1994287N08176 1994 101 WP MM VERNE 1994-11-02 21:00:00 ET 35.8965 154.492 main 1117 1112 PP____________ WP331994 36.1433 154.463 60 0 35.6497 154.522 6 1004 0 0 19 49
1994287N08176 1994 101 WP MM VERNE 1994-11-03 00:00:00 ET 36.5000 155.350 1004 tokyo main 1118 1094 OO____________ jtwc_wp WP331994 36.7000 155.200 60 0 36.3000 155.500 6 1004 0 0 0 18 51
1994287N08176 1994 101 WP MM VERNE 1994-11-03 03:00:00 ET 37.0106 156.182 main 1098 1079 PP____________ WP331994 37.2144 155.959 60 0 36.8069 156.405 6 1004 0 0 16 52
1994287N08176 1994 101 WP MM VERNE 1994-11-03 06:00:00 ET 37.5000 156.950 1004 tokyo main 1084 1061 OO____________ jtwc_wp WP331994 37.7000 156.700 60 0 37.3000 157.200 6 1004 0 0 0 16 49
1994287N08176 1994 101 WP MM VERNE 1994-11-03 09:00:00 ET 38.0493 157.666 main 1071 1050 PP____________ WP331994 38.1920 157.451 60 0 37.9066 157.881 6 1005 0 0 16 45
1994287N08176 1994 101 WP MM VERNE 1994-11-03 12:00:00 ET 38.6000 158.350 1006 tokyo main 1055 1045 OO____________ jtwc_wp WP331994 38.7000 158.200 60 0 38.5000 158.500 6 1006 0 0 0 15 47
1994287N08176 1994 101 WP MM VERNE 1994-11-03 15:00:00 ET 39.0656 159.045 main 1044 1042 PP____________ WP331994 39.1813 158.917 60 0 38.9500 159.174 6 1007 0 0 15 47
1994287N08176 1994 101 WP MM VERNE 1994-11-03 18:00:00 ET 39.6000 159.750 1008 tokyo main 1048 1032 OO____________ jtwc_wp WP331994 39.8000 159.700 60 0 39.4000 159.800 6 1008 0 0 0 17 41
1994287N08176 1994 101 WP MM VERNE 1994-11-03 21:00:00 ET 40.3188 160.484 main 1038 1028 PP____________ WP331994 40.6750 160.641 60 0 39.9627 160.328 6 1008 0 0 19 36
1994287N08176 1994 101 WP MM VERNE 1994-11-04 00:00:00 ET 41.1500 161.250 1008 tokyo main 1028 OO____________ jtwc_wp WP331994 41.7000 161.700 60 0 40.6000 160.800 6 1008 0 0 0 20 35

デジタル台風データ・検索

IBTrACS Databaseについて

本データベースは、米国NOAAが公開する1842年以降の世界の熱帯低気圧のベストトラックデータアーカイブInternational Best Track Archive for Climate Stewardship (IBTrACS)を、ウェブで閲覧しやすい形式に変換したものです。

最終更新日:2021-10-21